createdAt,value
2023-02-02T00:02:08.668Z,5.20
2023-02-02T00:04:36.130Z,5.30
2023-02-02T00:07:05.284Z,5.20
2023-02-02T00:09:32.549Z,5.20
2023-02-02T00:11:59.764Z,5.20
2023-02-02T00:14:26.717Z,5.20
2023-02-02T00:16:57.044Z,5.20
2023-02-02T00:19:27.659Z,5.20
2023-02-02T00:21:54.992Z,5.30
2023-02-02T00:24:22.269Z,5.30
2023-02-02T00:26:58.838Z,5.40
2023-02-02T00:29:27.059Z,5.30
2023-02-02T00:31:53.861Z,5.40
2023-02-02T00:34:21.201Z,5.30
2023-02-02T00:36:48.276Z,5.40
2023-02-02T00:39:16.568Z,5.30
2023-02-02T00:41:43.395Z,5.40
2023-02-02T00:44:28.854Z,5.40
2023-02-02T00:46:55.534Z,5.40
2023-02-02T00:49:22.206Z,5.40
2023-02-02T00:51:48.888Z,5.40
2023-02-02T00:54:15.727Z,5.40
2023-02-02T00:56:42.829Z,5.40
2023-02-02T00:59:09.486Z,5.40
2023-02-02T01:01:36.268Z,5.40
2023-02-02T01:04:03.028Z,5.50
2023-02-02T01:06:29.783Z,5.40
2023-02-02T01:08:56.461Z,5.40
2023-02-02T01:11:23.516Z,5.40
2023-02-02T01:13:50.220Z,5.40
2023-02-02T01:16:16.974Z,5.40
2023-02-02T01:18:43.790Z,5.40
2023-02-02T01:21:11.168Z,5.50
2023-02-02T01:23:38.388Z,5.40
2023-02-02T01:26:06.253Z,5.40
2023-02-02T01:28:32.988Z,5.30
2023-02-02T01:31:05.130Z,5.30
2023-02-02T01:33:31.850Z,5.30
2023-02-02T01:35:58.474Z,5.30
2023-02-02T01:38:25.907Z,5.30
2023-02-02T01:40:54.042Z,5.30
2023-02-02T01:43:23.043Z,5.30
2023-02-02T01:45:50.248Z,5.30
2023-02-02T01:48:17.524Z,5.20
2023-02-02T01:50:44.514Z,5.20
2023-02-02T01:53:11.308Z,5.20
2023-02-02T01:55:39.475Z,5.30
2023-02-02T01:58:09.602Z,5.30
2023-02-02T02:00:36.915Z,5.30
2023-02-02T02:03:06.835Z,5.30
2023-02-02T02:05:40.227Z,5.30
2023-02-02T02:08:27.206Z,5.30
2023-02-02T02:10:53.831Z,5.30
2023-02-02T02:13:21.697Z,5.30
2023-02-02T02:16:17.181Z,5.30
2023-02-02T02:18:58.556Z,5.30
2023-02-02T02:21:48.051Z,5.30
2023-02-02T02:25:02.631Z,5.30
2023-02-02T02:27:35.443Z,5.30
2023-02-02T02:30:08.225Z,5.20
2023-02-02T02:32:34.833Z,5.20
2023-02-02T02:35:10.767Z,5.30
2023-02-02T02:37:38.003Z,5.30
2023-02-02T02:40:13.619Z,5.30
2023-02-02T02:42:43.661Z,5.30
2023-02-02T02:45:11.622Z,5.40
2023-02-02T02:47:38.644Z,5.40
2023-02-02T02:50:05.716Z,5.40
2023-02-02T02:52:33.058Z,5.40
2023-02-02T02:55:00.707Z,5.40
2023-02-02T02:57:46.255Z,5.40
2023-02-02T03:00:22.056Z,5.30
2023-02-02T03:02:51.698Z,5.30
2023-02-02T03:05:24.943Z,5.30
2023-02-02T03:08:04.209Z,5.30
2023-02-02T03:10:31.579Z,5.30
2023-02-02T03:12:58.194Z,5.30
2023-02-02T03:15:25.332Z,5.30
2023-02-02T03:17:53.221Z,5.30
2023-02-02T03:20:19.969Z,5.30
2023-02-02T03:22:46.628Z,5.20
2023-02-02T03:25:13.287Z,5.30
2023-02-02T03:27:40.006Z,5.20
2023-02-02T03:30:08.047Z,5.20
2023-02-02T03:32:34.827Z,5.20
2023-02-02T03:35:01.465Z,5.30
2023-02-02T03:37:28.220Z,5.20
2023-02-02T03:39:54.806Z,5.10
2023-02-02T03:42:21.409Z,5.20
2023-02-02T03:44:48.055Z,5.10
2023-02-02T03:47:14.655Z,5.10
2023-02-02T03:49:41.243Z,5.10
2023-02-02T03:52:08.047Z,5.10
2023-02-02T03:54:34.748Z,5.10
2023-02-02T03:57:01.350Z,5.10
2023-02-02T03:59:27.932Z,5.10
2023-02-02T04:01:54.523Z,5.00
2023-02-02T04:04:21.125Z,5.00
2023-02-02T04:06:47.725Z,4.90
2023-02-02T04:09:14.338Z,4.90
2023-02-02T04:11:40.984Z,4.80
2023-02-02T04:14:07.667Z,4.70
2023-02-02T04:16:37.119Z,4.80
2023-02-02T04:19:04.606Z,4.70
2023-02-02T04:21:34.840Z,4.80
2023-02-02T04:24:01.568Z,4.70
2023-02-02T04:26:28.496Z,4.70
2023-02-02T04:28:55.225Z,4.70
2023-02-02T04:31:21.857Z,4.70
2023-02-02T04:33:48.561Z,4.70
2023-02-02T04:36:15.177Z,4.70
2023-02-02T04:38:41.841Z,4.70
2023-02-02T04:41:09.663Z,4.70
2023-02-02T04:43:37.151Z,4.70
2023-02-02T04:46:04.237Z,4.70
2023-02-02T04:48:31.178Z,4.80
2023-02-02T04:50:58.562Z,4.70
2023-02-02T04:53:25.224Z,4.70
2023-02-02T04:55:51.867Z,4.70
2023-02-02T04:58:19.496Z,4.70
2023-02-02T05:00:46.201Z,4.70
2023-02-02T05:03:12.947Z,4.70
2023-02-02T05:05:39.627Z,4.60
2023-02-02T05:08:08.307Z,4.60
2023-02-02T05:10:35.078Z,4.50
2023-02-02T05:13:01.737Z,4.50
2023-02-02T05:15:28.403Z,4.50
2023-02-02T05:17:55.021Z,4.50
2023-02-02T05:20:21.679Z,4.50
2023-02-02T05:22:48.899Z,4.50
2023-02-02T05:25:15.880Z,4.50
2023-02-02T05:27:46.268Z,4.50
2023-02-02T05:30:13.349Z,4.50
2023-02-02T05:32:40.444Z,4.40
2023-02-02T05:35:07.493Z,4.40
2023-02-02T05:37:34.155Z,4.30
2023-02-02T05:40:03.973Z,4.40
2023-02-02T05:42:30.619Z,4.30
2023-02-02T05:44:57.267Z,4.30
2023-02-02T05:47:23.914Z,4.30
2023-02-02T05:49:50.559Z,4.30
2023-02-02T05:52:19.146Z,4.20
2023-02-02T05:54:45.888Z,4.30
2023-02-02T05:57:12.753Z,4.20
2023-02-02T05:59:39.382Z,4.20
2023-02-02T06:02:06.067Z,4.20
2023-02-02T06:04:32.729Z,4.10
2023-02-02T06:06:59.495Z,4.10
2023-02-02T06:09:26.228Z,4.10
2023-02-02T06:11:52.868Z,4.10
2023-02-02T06:14:19.551Z,4.10
2023-02-02T06:16:46.235Z,4.10
2023-02-02T06:19:12.965Z,4.10
2023-02-02T06:21:39.639Z,4.20
2023-02-02T06:24:06.482Z,4.20
2023-02-02T06:26:33.266Z,4.20
2023-02-02T06:29:00.013Z,4.10
2023-02-02T06:31:26.794Z,4.10
2023-02-02T06:33:57.293Z,4.00
2023-02-02T06:36:25.117Z,4.00
2023-02-02T06:38:52.899Z,4.00
2023-02-02T06:41:20.450Z,4.00
2023-02-02T06:43:47.612Z,4.00
2023-02-02T06:46:14.729Z,4.00
2023-02-02T06:48:41.598Z,4.10
2023-02-02T06:51:08.687Z,4.10
2023-02-02T06:53:35.361Z,4.10
2023-02-02T06:56:03.709Z,4.00
2023-02-02T06:58:31.082Z,4.00
2023-02-02T07:01:08.237Z,4.00
2023-02-02T07:03:35.334Z,4.00
2023-02-02T07:06:15.023Z,4.00
2023-02-02T07:08:42.048Z,4.00
2023-02-02T07:11:14.289Z,4.00
2023-02-02T07:13:43.283Z,4.00
2023-02-02T07:16:10.065Z,4.10
2023-02-02T07:18:39.722Z,4.00
2023-02-02T07:21:06.514Z,4.00
2023-02-02T07:23:33.551Z,4.00
2023-02-02T07:26:01.672Z,4.10
2023-02-02T07:28:28.412Z,4.00
2023-02-02T07:30:57.383Z,4.10
2023-02-02T07:33:24.061Z,4.10
2023-02-02T07:35:50.739Z,4.10
2023-02-02T07:38:17.449Z,4.10
2023-02-02T07:40:44.820Z,4.10
2023-02-02T07:43:11.593Z,4.10
2023-02-02T07:45:38.651Z,4.10
2023-02-02T07:48:05.622Z,4.10
2023-02-02T07:50:32.331Z,4.10
2023-02-02T07:53:00.672Z,4.20
2023-02-02T07:55:27.675Z,4.20
2023-02-02T07:57:55.534Z,4.30
2023-02-02T08:00:22.616Z,4.30
2023-02-02T08:02:49.814Z,4.30
2023-02-02T08:05:17.316Z,4.30
2023-02-02T08:07:44.820Z,4.30
2023-02-02T08:10:12.027Z,4.40
2023-02-02T08:12:38.704Z,4.40
2023-02-02T08:15:05.574Z,4.40
2023-02-02T08:17:32.342Z,4.50
2023-02-02T08:19:58.980Z,4.50
2023-02-02T08:22:25.669Z,4.50
2023-02-02T08:24:52.289Z,4.50
2023-02-02T08:27:18.944Z,4.50
2023-02-02T08:29:46.164Z,4.50
2023-02-02T08:32:13.017Z,4.50
2023-02-02T08:34:40.872Z,4.60
2023-02-02T08:37:07.706Z,4.60
2023-02-02T08:39:34.408Z,4.60
2023-02-02T08:42:01.237Z,4.70
2023-02-02T08:44:28.426Z,4.70
2023-02-02T08:47:14.694Z,4.80
2023-02-02T08:49:42.477Z,4.80
2023-02-02T08:52:09.445Z,4.80
2023-02-02T08:54:36.175Z,4.90
2023-02-02T08:57:02.865Z,5.00
2023-02-02T08:59:29.592Z,5.00
2023-02-02T09:01:56.616Z,5.10
2023-02-02T09:04:23.476Z,5.10
2023-02-02T09:06:50.266Z,5.10
2023-02-02T09:09:17.152Z,5.20
2023-02-02T09:11:44.472Z,5.20
2023-02-02T09:14:12.957Z,5.20
2023-02-02T09:16:40.012Z,5.30
2023-02-02T09:19:07.896Z,5.30
2023-02-02T09:21:37.366Z,5.30
2023-02-02T09:24:12.362Z,5.30
2023-02-02T09:26:40.634Z,5.30
2023-02-02T09:29:08.470Z,5.40
2023-02-02T09:31:36.649Z,5.50
2023-02-02T09:34:04.635Z,5.50
2023-02-02T09:36:31.749Z,5.60
2023-02-02T09:38:58.447Z,5.80
2023-02-02T09:41:37.305Z,5.80
2023-02-02T09:44:04.028Z,5.90
2023-02-02T09:46:46.137Z,5.90
2023-02-02T09:49:15.513Z,5.90
2023-02-02T09:51:46.167Z,5.80
2023-02-02T09:54:12.878Z,5.70
2023-02-02T09:56:41.922Z,5.60
2023-02-02T09:59:20.438Z,5.60
2023-02-02T10:01:51.477Z,5.70
2023-02-02T10:04:21.511Z,5.60
2023-02-02T10:06:50.215Z,5.60
2023-02-02T10:09:23.535Z,5.60
2023-02-02T10:12:06.555Z,5.70
2023-02-02T10:14:42.172Z,5.80
2023-02-02T10:17:21.007Z,6.00
2023-02-02T10:19:50.496Z,6.10
2023-02-02T10:22:23.167Z,6.20
2023-02-02T10:24:50.013Z,6.20
2023-02-02T10:27:22.807Z,6.30
2023-02-02T10:29:49.632Z,6.30
2023-02-02T10:32:23.121Z,6.40
2023-02-02T10:34:51.198Z,6.50
2023-02-02T10:37:20.956Z,6.50
2023-02-02T10:40:10.468Z,6.50
2023-02-02T10:42:40.173Z,6.60
2023-02-02T10:45:15.837Z,6.70
2023-02-02T10:47:42.512Z,6.70
2023-02-02T10:50:16.611Z,6.80
2023-02-02T10:52:52.526Z,6.70
2023-02-02T10:55:19.147Z,6.70
2023-02-02T10:58:03.538Z,6.60
2023-02-02T11:00:35.750Z,6.60
2023-02-02T11:03:04.764Z,6.80
2023-02-02T11:05:50.360Z,6.90
2023-02-02T11:08:21.573Z,6.90
2023-02-02T11:10:49.800Z,7.00
2023-02-02T11:13:25.201Z,7.10
2023-02-02T11:16:11.818Z,7.20
2023-02-02T11:18:38.554Z,7.20
2023-02-02T11:21:19.758Z,7.20
2023-02-02T11:23:57.849Z,7.20
2023-02-02T11:26:25.232Z,7.20
2023-02-02T11:28:53.751Z,7.10
2023-02-02T11:31:31.262Z,7.20
2023-02-02T11:34:24.398Z,7.30
2023-02-02T11:36:58.545Z,7.30
2023-02-02T11:39:26.225Z,7.30
2023-02-02T11:42:00.671Z,7.30
2023-02-02T11:44:28.295Z,7.20
2023-02-02T11:46:56.764Z,7.20
2023-02-02T11:49:24.081Z,7.10
2023-02-02T11:52:01.382Z,7.00
2023-02-02T11:54:35.181Z,7.00
2023-02-02T11:57:04.309Z,6.90
2023-02-02T11:59:42.178Z,6.90
2023-02-02T12:02:29.074Z,6.80
2023-02-02T12:05:14.811Z,6.80
2023-02-02T12:07:51.740Z,6.90
2023-02-02T12:10:36.365Z,6.90
2023-02-02T12:13:41.010Z,6.90
2023-02-02T12:16:32.384Z,7.00
2023-02-02T12:18:59.061Z,7.00
2023-02-02T12:21:35.308Z,7.10
2023-02-02T12:24:13.293Z,7.00
2023-02-02T12:26:41.423Z,7.00
2023-02-02T12:29:08.075Z,7.00
2023-02-02T12:31:53.809Z,7.00
2023-02-02T12:34:20.463Z,7.00
2023-02-02T12:37:03.360Z,7.00
2023-02-02T12:39:34.473Z,7.00
2023-02-02T12:42:20.047Z,7.10
2023-02-02T12:44:56.225Z,7.30
2023-02-02T12:47:29.768Z,7.50
2023-02-02T12:50:14.168Z,7.50
2023-02-02T12:53:13.527Z,7.60
2023-02-02T12:55:59.088Z,7.60
2023-02-02T12:58:25.951Z,7.70
2023-02-02T13:11:31.791Z,7.70
2023-02-02T13:14:00.228Z,7.70
2023-02-02T13:16:27.929Z,7.70
2023-02-02T13:18:57.240Z,7.70
2023-02-02T13:21:24.800Z,7.60
2023-02-02T13:23:53.532Z,7.50
2023-02-02T13:26:21.363Z,7.20
2023-02-02T13:28:54.206Z,6.90
2023-02-02T13:31:24.054Z,6.70
2023-02-02T13:33:56.350Z,6.60
2023-02-02T13:36:26.412Z,6.40
2023-02-02T13:38:58.717Z,6.30
2023-02-02T13:41:25.856Z,6.20
2023-02-02T13:43:59.738Z,6.30
2023-02-02T13:46:45.191Z,6.30
2023-02-02T13:49:16.374Z,6.30
2023-02-02T13:52:01.806Z,6.30
2023-02-02T13:54:34.600Z,6.30
2023-02-02T13:57:01.256Z,6.40
2023-02-02T14:00:03.814Z,6.40
2023-02-02T14:02:36.301Z,6.50
2023-02-02T14:05:04.487Z,6.60
2023-02-02T14:07:41.897Z,6.60
2023-02-02T14:10:21.889Z,6.60
2023-02-02T14:12:48.675Z,6.50
2023-02-02T14:15:15.787Z,6.50
2023-02-02T14:17:42.456Z,6.50
2023-02-02T14:20:28.142Z,6.50
2023-02-02T14:22:54.887Z,6.50
2023-02-02T14:25:33.764Z,6.40
2023-02-02T14:28:01.765Z,6.50
2023-02-02T14:30:38.780Z,6.50
2023-02-02T14:33:20.988Z,6.50
2023-02-02T14:35:47.644Z,6.50
2023-02-02T14:38:40.842Z,6.50
2023-02-02T14:41:47.057Z,6.50
2023-02-02T14:44:13.833Z,6.50
2023-02-02T14:46:44.431Z,6.50
2023-02-02T14:49:13.513Z,6.50
2023-02-02T14:52:09.974Z,6.40
2023-02-02T14:54:41.540Z,6.40
2023-02-02T14:57:23.279Z,6.40
2023-02-02T14:59:50.116Z,6.30
2023-02-02T15:02:19.086Z,6.30
2023-02-02T15:04:49.318Z,6.30
2023-02-02T15:07:25.297Z,6.30
2023-02-02T15:09:56.507Z,6.30
2023-02-02T15:12:26.330Z,6.30
2023-02-02T15:14:56.846Z,6.20
2023-02-02T15:17:48.858Z,6.20
2023-02-02T15:20:21.188Z,6.20
2023-02-02T15:22:47.977Z,6.20
2023-02-02T15:25:20.636Z,6.20
2023-02-02T15:27:56.954Z,6.20
2023-02-02T15:30:24.696Z,6.10
2023-02-02T15:32:51.755Z,6.00
2023-02-02T15:35:24.141Z,6.00
2023-02-02T15:37:55.811Z,6.00
2023-02-02T15:40:24.355Z,5.90
2023-02-02T15:43:00.275Z,5.90
2023-02-02T15:45:33.302Z,5.90
2023-02-02T15:48:01.639Z,5.80
2023-02-02T15:50:28.460Z,5.80
2023-02-02T15:52:55.301Z,5.80
2023-02-02T15:55:24.051Z,5.70
2023-02-02T15:57:54.282Z,5.70
2023-02-02T16:00:23.631Z,5.60
2023-02-02T16:02:57.841Z,5.60
2023-02-02T16:05:25.968Z,5.60
2023-02-02T16:08:03.809Z,5.50
2023-02-02T16:10:31.625Z,5.50
2023-02-02T16:12:58.625Z,5.40
2023-02-02T16:15:27.249Z,5.40
2023-02-02T16:17:58.172Z,5.40
2023-02-02T16:20:25.116Z,5.30
2023-02-02T16:22:52.543Z,5.30
2023-02-02T16:25:21.331Z,5.20
2023-02-02T16:27:48.711Z,5.10
2023-02-02T16:30:24.406Z,5.10
2023-02-02T16:32:51.253Z,5.10
2023-02-02T16:35:44.412Z,5.00
2023-02-02T16:38:34.496Z,5.00
2023-02-02T16:41:09.314Z,5.00
2023-02-02T16:43:40.141Z,5.10
2023-02-02T16:46:11.505Z,5.20
2023-02-02T16:48:44.978Z,5.10
2023-02-02T16:51:18.100Z,5.20
2023-02-02T16:54:05.057Z,5.20
2023-02-02T16:56:36.514Z,5.20
2023-02-02T16:59:14.956Z,5.30
2023-02-02T17:01:43.721Z,5.30
2023-02-02T17:04:22.143Z,5.40
2023-02-02T17:06:52.735Z,5.40
2023-02-02T17:09:37.352Z,5.40
2023-02-02T17:12:09.317Z,5.40
2023-02-02T17:14:49.341Z,5.40
2023-02-02T17:17:15.985Z,5.40
2023-02-02T17:19:42.653Z,5.40
2023-02-02T17:22:10.068Z,5.40
2023-02-02T17:24:37.111Z,5.40
2023-02-02T17:27:03.883Z,5.40
2023-02-02T17:29:30.685Z,5.50
2023-02-02T17:31:57.447Z,5.50
2023-02-02T17:34:25.070Z,5.50
2023-02-02T17:36:51.775Z,5.50
2023-02-02T17:39:18.523Z,5.50
2023-02-02T17:41:46.049Z,5.50
2023-02-02T17:44:12.804Z,5.50
2023-02-02T17:46:40.289Z,5.50
2023-02-02T17:49:07.097Z,5.50
2023-02-02T17:51:41.445Z,5.60
2023-02-02T17:54:12.256Z,5.50
2023-02-02T17:56:39.477Z,5.60
2023-02-02T17:59:06.613Z,5.60
2023-02-02T18:01:34.077Z,5.60
2023-02-02T18:04:00.951Z,5.60
2023-02-02T18:06:27.666Z,5.70
2023-02-02T18:08:54.461Z,5.60
2023-02-02T18:11:21.544Z,5.60
2023-02-02T18:13:48.282Z,5.60
2023-02-02T18:16:15.077Z,5.60
2023-02-02T18:18:41.931Z,5.60
2023-02-02T18:21:09.738Z,5.60
2023-02-02T18:23:36.609Z,5.60
2023-02-02T18:26:20.321Z,5.60
2023-02-02T18:28:50.182Z,5.70
2023-02-02T18:31:19.445Z,5.60
2023-02-02T18:33:47.125Z,5.60
2023-02-02T18:36:15.137Z,5.60
2023-02-02T18:38:45.183Z,5.60
2023-02-02T18:41:12.320Z,5.60
2023-02-02T18:43:39.031Z,5.60
2023-02-02T18:46:08.807Z,5.60
2023-02-02T18:48:35.887Z,5.50
2023-02-02T18:51:06.737Z,5.50
2023-02-02T18:53:33.608Z,5.50
2023-02-02T18:56:07.579Z,5.60
2023-02-02T18:58:35.053Z,5.50
2023-02-02T19:01:08.920Z,5.50
2023-02-02T19:03:36.826Z,5.50
2023-02-02T19:06:22.592Z,5.50
2023-02-02T19:08:49.337Z,5.50
2023-02-02T19:11:17.678Z,5.50
2023-02-02T19:13:44.614Z,5.50
2023-02-02T19:16:37.820Z,5.50
2023-02-02T19:19:07.972Z,5.50
2023-02-02T19:21:34.844Z,5.50
2023-02-02T19:24:01.681Z,5.40
2023-02-02T19:26:29.470Z,5.40
2023-02-02T19:29:00.402Z,5.40
2023-02-02T19:31:27.959Z,5.40
2023-02-02T19:33:54.858Z,5.40
2023-02-02T19:36:25.613Z,5.40
2023-02-02T19:38:56.191Z,5.40
2023-02-02T19:41:24.334Z,5.40
2023-02-02T19:44:02.115Z,5.40
2023-02-02T19:46:29.910Z,5.40
2023-02-02T19:49:11.920Z,5.40
2023-02-02T19:51:50.915Z,5.40
2023-02-02T19:54:17.668Z,5.30
2023-02-02T19:56:44.341Z,5.30
2023-02-02T19:59:16.217Z,5.30
2023-02-02T20:01:45.988Z,5.40
2023-02-02T20:04:18.224Z,5.40
2023-02-02T20:06:58.042Z,5.40
2023-02-02T20:09:28.701Z,5.30
2023-02-02T20:11:56.676Z,5.40
2023-02-02T20:14:33.216Z,5.30
2023-02-02T20:17:00.942Z,5.30
2023-02-02T20:19:29.508Z,5.30
2023-02-02T20:21:56.489Z,5.40
2023-02-02T20:24:37.204Z,5.40
2023-02-02T20:27:13.274Z,5.30
2023-02-02T20:29:44.223Z,5.30
2023-02-02T20:32:17.752Z,5.30
2023-02-02T20:34:45.015Z,5.30
2023-02-02T20:37:11.672Z,5.20
2023-02-02T20:40:08.137Z,5.20
2023-02-02T20:42:34.768Z,5.20
2023-02-02T20:45:01.475Z,5.20
2023-02-02T20:47:28.177Z,5.20
2023-02-02T20:49:54.973Z,5.20
2023-02-02T20:52:23.977Z,5.20
2023-02-02T20:54:51.445Z,5.20
2023-02-02T20:57:18.651Z,5.20
2023-02-02T20:59:45.581Z,5.20
2023-02-02T21:02:19.420Z,5.20
2023-02-02T21:04:47.333Z,5.20
2023-02-02T21:07:16.844Z,5.20
2023-02-02T21:09:44.318Z,5.20
2023-02-02T21:12:11.441Z,5.20
2023-02-02T21:14:38.965Z,5.10
2023-02-02T21:17:14.920Z,5.10
2023-02-02T21:19:42.802Z,5.10
2023-02-02T21:22:09.850Z,5.10
2023-02-02T21:24:36.552Z,5.00
2023-02-02T21:27:04.642Z,5.10
2023-02-02T21:29:32.044Z,5.00
2023-02-02T21:32:01.478Z,5.00
2023-02-02T21:34:29.079Z,5.00
2023-02-02T21:36:58.129Z,5.00
2023-02-02T21:39:29.701Z,5.10
2023-02-02T21:42:08.490Z,5.00
2023-02-02T21:44:36.173Z,5.00
2023-02-02T21:47:03.042Z,5.00
2023-02-02T21:49:38.569Z,5.00
2023-02-02T21:52:14.514Z,5.00
2023-02-02T21:54:41.496Z,5.00
2023-02-02T21:57:14.325Z,5.00
2023-02-02T21:59:41.092Z,5.00
2023-02-02T22:02:17.081Z,5.00
2023-02-02T22:04:43.854Z,5.00
2023-02-02T22:07:14.725Z,5.00
2023-02-02T22:09:42.847Z,5.00
2023-02-02T22:12:23.248Z,5.00
2023-02-02T22:14:51.786Z,5.00
2023-02-02T22:17:23.261Z,5.00
2023-02-02T22:20:01.113Z,5.00
2023-02-02T22:22:32.728Z,5.00
2023-02-02T22:25:02.275Z,5.00
2023-02-02T22:27:42.482Z,5.00
2023-02-02T22:30:28.409Z,5.00
2023-02-02T22:32:55.497Z,5.00
2023-02-02T22:35:22.411Z,5.00
2023-02-02T22:37:49.144Z,5.00
2023-02-02T22:40:16.538Z,5.00
2023-02-02T22:42:43.554Z,5.00
2023-02-02T22:45:10.378Z,5.00
2023-02-02T22:47:37.446Z,5.00
2023-02-02T22:50:04.315Z,5.00
2023-02-02T22:52:31.021Z,5.00
2023-02-02T22:54:57.717Z,5.00
2023-02-02T22:57:24.548Z,5.00
2023-02-02T22:59:51.302Z,5.00
2023-02-02T23:02:18.092Z,5.10
2023-02-02T23:04:44.827Z,5.10
2023-02-02T23:07:11.556Z,5.10
2023-02-02T23:09:38.266Z,5.20
2023-02-02T23:12:05.133Z,5.20
2023-02-02T23:14:31.868Z,5.20
2023-02-02T23:16:58.572Z,5.30
2023-02-02T23:19:25.372Z,5.40
2023-02-02T23:21:52.524Z,5.30
2023-02-02T23:24:19.256Z,5.40
2023-02-02T23:26:45.932Z,5.40
2023-02-02T23:29:12.602Z,5.50
2023-02-02T23:31:39.347Z,5.50
2023-02-02T23:34:06.159Z,5.50
2023-02-02T23:36:32.894Z,5.60
2023-02-02T23:38:59.616Z,5.60
2023-02-02T23:41:26.424Z,5.60
2023-02-02T23:43:53.334Z,5.70
2023-02-02T23:46:20.317Z,5.70
2023-02-02T23:48:47.399Z,5.80
2023-02-02T23:51:14.360Z,5.80
2023-02-02T23:53:42.265Z,5.90
2023-02-02T23:56:09.813Z,6.00
2023-02-02T23:58:36.552Z,6.00
